sensor_id;sensor_type;location;lat;lon;timestamp;P1;durP1;ratioP1;P2;durP2;ratioP2
74328;SDS011;62745;51.060;13.786;2023-07-13T00:02:06;3.25;;;1.70;;
74328;SDS011;62745;51.060;13.786;2023-07-13T00:04:32;4.13;;;1.83;;
74328;SDS011;62745;51.060;13.786;2023-07-13T00:06:57;4.85;;;1.80;;
74328;SDS011;62745;51.060;13.786;2023-07-13T00:09:22;3.53;;;1.50;;
74328;SDS011;62745;51.060;13.786;2023-07-13T00:11:53;4.07;;;1.88;;
74328;SDS011;62745;51.060;13.786;2023-07-13T00:14:19;4.30;;;1.92;;
74328;SDS011;62745;51.060;13.786;2023-07-13T00:16:45;5.10;;;1.80;;
74328;SDS011;62745;51.060;13.786;2023-07-13T00:19:11;3.97;;;1.70;;
74328;SDS011;62745;51.060;13.786;2023-07-13T00:21:37;4.13;;;1.83;;
74328;SDS011;62745;51.060;13.786;2023-07-13T00:24:03;4.78;;;2.00;;
74328;SDS011;62745;51.060;13.786;2023-07-13T00:26:30;3.45;;;1.80;;
74328;SDS011;62745;51.060;13.786;2023-07-13T00:28:57;3.33;;;1.92;;
74328;SDS011;62745;51.060;13.786;2023-07-13T00:31:23;3.20;;;1.70;;
74328;SDS011;62745;51.060;13.786;2023-07-13T00:33:48;3.77;;;1.60;;
74328;SDS011;62745;51.060;13.786;2023-07-13T00:36:14;3.47;;;1.60;;
74328;SDS011;62745;51.060;13.786;2023-07-13T00:38:39;3.95;;;1.60;;
74328;SDS011;62745;51.060;13.786;2023-07-13T00:41:05;5.53;;;1.60;;
74328;SDS011;62745;51.060;13.786;2023-07-13T00:43:30;4.57;;;2.10;;
74328;SDS011;62745;51.060;13.786;2023-07-13T00:48:21;4.20;;;2.10;;
74328;SDS011;62745;51.060;13.786;2023-07-13T00:50:51;6.90;;;2.17;;
74328;SDS011;62745;51.060;13.786;2023-07-13T00:53:18;4.30;;;2.10;;
74328;SDS011;62745;51.060;13.786;2023-07-13T00:55:45;6.10;;;2.08;;
74328;SDS011;62745;51.060;13.786;2023-07-13T00:58:12;3.83;;;2.28;;
74328;SDS011;62745;51.060;13.786;2023-07-13T01:00:38;6.63;;;2.42;;
74328;SDS011;62745;51.060;13.786;2023-07-13T01:03:04;7.32;;;2.10;;
74328;SDS011;62745;51.060;13.786;2023-07-13T01:05:30;4.38;;;2.20;;
74328;SDS011;62745;51.060;13.786;2023-07-13T01:07:58;3.92;;;2.10;;
74328;SDS011;62745;51.060;13.786;2023-07-13T01:10:24;3.40;;;1.98;;
74328;SDS011;62745;51.060;13.786;2023-07-13T01:12:50;4.45;;;2.30;;
74328;SDS011;62745;51.060;13.786;2023-07-13T01:15:49;5.00;;;2.28;;
74328;SDS011;62745;51.060;13.786;2023-07-13T01:18:19;3.83;;;2.17;;
74328;SDS011;62745;51.060;13.786;2023-07-13T01:20:50;4.32;;;2.67;;
74328;SDS011;62745;51.060;13.786;2023-07-13T01:23:16;3.97;;;2.50;;
74328;SDS011;62745;51.060;13.786;2023-07-13T01:25:42;4.63;;;2.25;;
74328;SDS011;62745;51.060;13.786;2023-07-13T01:28:07;5.47;;;2.67;;
74328;SDS011;62745;51.060;13.786;2023-07-13T01:30:36;4.57;;;2.58;;
74328;SDS011;62745;51.060;13.786;2023-07-13T01:33:04;7.68;;;2.70;;
74328;SDS011;62745;51.060;13.786;2023-07-13T01:35:30;4.97;;;2.63;;
74328;SDS011;62745;51.060;13.786;2023-07-13T01:37:55;6.03;;;2.50;;
74328;SDS011;62745;51.060;13.786;2023-07-13T01:40:21;5.53;;;2.30;;
74328;SDS011;62745;51.060;13.786;2023-07-13T01:42:47;4.88;;;2.47;;
74328;SDS011;62745;51.060;13.786;2023-07-13T01:45:13;4.68;;;2.83;;
74328;SDS011;62745;51.060;13.786;2023-07-13T01:47:38;5.13;;;2.50;;
74328;SDS011;62745;51.060;13.786;2023-07-13T01:50:03;4.07;;;2.50;;
74328;SDS011;62745;51.060;13.786;2023-07-13T01:52:29;4.97;;;2.67;;
74328;SDS011;62745;51.060;13.786;2023-07-13T01:54:54;4.13;;;2.50;;
74328;SDS011;62745;51.060;13.786;2023-07-13T01:57:20;5.20;;;2.47;;
74328;SDS011;62745;51.060;13.786;2023-07-13T01:59:45;6.17;;;3.30;;
74328;SDS011;62745;51.060;13.786;2023-07-13T02:02:10;5.03;;;2.67;;
74328;SDS011;62745;51.060;13.786;2023-07-13T02:04:35;4.45;;;2.65;;
74328;SDS011;62745;51.060;13.786;2023-07-13T02:07:01;5.70;;;2.63;;
74328;SDS011;62745;51.060;13.786;2023-07-13T02:09:26;5.75;;;2.67;;
74328;SDS011;62745;51.060;13.786;2023-07-13T02:11:52;5.17;;;3.07;;
74328;SDS011;62745;51.060;13.786;2023-07-13T02:14:17;5.00;;;2.93;;
74328;SDS011;62745;51.060;13.786;2023-07-13T02:16:42;4.00;;;2.40;;
74328;SDS011;62745;51.060;13.786;2023-07-13T02:19:08;5.05;;;2.85;;
74328;SDS011;62745;51.060;13.786;2023-07-13T02:21:33;6.03;;;2.80;;
74328;SDS011;62745;51.060;13.786;2023-07-13T02:23:59;5.07;;;2.80;;
74328;SDS011;62745;51.060;13.786;2023-07-13T02:26:25;5.47;;;2.97;;
74328;SDS011;62745;51.060;13.786;2023-07-13T02:28:51;7.07;;;3.13;;
74328;SDS011;62745;51.060;13.786;2023-07-13T02:31:17;4.45;;;2.75;;
74328;SDS011;62745;51.060;13.786;2023-07-13T02:33:42;5.63;;;2.45;;
74328;SDS011;62745;51.060;13.786;2023-07-13T02:36:08;8.65;;;3.00;;
74328;SDS011;62745;51.060;13.786;2023-07-13T02:38:34;6.82;;;3.00;;
74328;SDS011;62745;51.060;13.786;2023-07-13T02:41:00;6.00;;;2.95;;
74328;SDS011;62745;51.060;13.786;2023-07-13T02:43:26;4.70;;;2.72;;
74328;SDS011;62745;51.060;13.786;2023-07-13T02:45:52;4.90;;;2.75;;
74328;SDS011;62745;51.060;13.786;2023-07-13T02:48:17;7.00;;;2.93;;
74328;SDS011;62745;51.060;13.786;2023-07-13T02:50:43;5.67;;;3.20;;
74328;SDS011;62745;51.060;13.786;2023-07-13T02:53:09;6.88;;;2.80;;
74328;SDS011;62745;51.060;13.786;2023-07-13T02:55:34;5.17;;;2.93;;
74328;SDS011;62745;51.060;13.786;2023-07-13T02:58:00;7.30;;;3.00;;
74328;SDS011;62745;51.060;13.786;2023-07-13T03:00:25;6.90;;;2.70;;
74328;SDS011;62745;51.060;13.786;2023-07-13T03:02:50;6.63;;;2.97;;
74328;SDS011;62745;51.060;13.786;2023-07-13T03:05:15;4.87;;;3.10;;
74328;SDS011;62745;51.060;13.786;2023-07-13T03:07:41;6.20;;;2.78;;
74328;SDS011;62745;51.060;13.786;2023-07-13T03:10:07;6.22;;;2.78;;
74328;SDS011;62745;51.060;13.786;2023-07-13T03:12:34;5.35;;;2.58;;
74328;SDS011;62745;51.060;13.786;2023-07-13T03:14:59;5.05;;;2.70;;
74328;SDS011;62745;51.060;13.786;2023-07-13T03:17:24;7.17;;;3.47;;
74328;SDS011;62745;51.060;13.786;2023-07-13T03:19:49;5.57;;;2.93;;
74328;SDS011;62745;51.060;13.786;2023-07-13T03:22:16;5.85;;;3.00;;
74328;SDS011;62745;51.060;13.786;2023-07-13T03:24:42;4.95;;;3.10;;
74328;SDS011;62745;51.060;13.786;2023-07-13T03:27:08;5.97;;;3.15;;
74328;SDS011;62745;51.060;13.786;2023-07-13T03:29:33;5.70;;;2.75;;
74328;SDS011;62745;51.060;13.786;2023-07-13T03:31:58;8.93;;;3.60;;
74328;SDS011;62745;51.060;13.786;2023-07-13T03:34:24;5.97;;;3.20;;
74328;SDS011;62745;51.060;13.786;2023-07-13T03:36:49;6.40;;;3.20;;
74328;SDS011;62745;51.060;13.786;2023-07-13T03:39:15;9.03;;;3.43;;
74328;SDS011;62745;51.060;13.786;2023-07-13T03:41:40;5.27;;;2.77;;
74328;SDS011;62745;51.060;13.786;2023-07-13T03:44:05;5.10;;;3.03;;
74328;SDS011;62745;51.060;13.786;2023-07-13T03:46:31;5.20;;;3.00;;
74328;SDS011;62745;51.060;13.786;2023-07-13T03:48:58;5.75;;;3.28;;
74328;SDS011;62745;51.060;13.786;2023-07-13T03:51:24;6.40;;;3.28;;
74328;SDS011;62745;51.060;13.786;2023-07-13T03:53:49;6.43;;;3.00;;
74328;SDS011;62745;51.060;13.786;2023-07-13T03:56:15;5.38;;;2.75;;
74328;SDS011;62745;51.060;13.786;2023-07-13T03:58:42;6.13;;;3.03;;
74328;SDS011;62745;51.060;13.786;2023-07-13T04:01:10;4.90;;;2.88;;
74328;SDS011;62745;51.060;13.786;2023-07-13T04:03:36;6.00;;;3.20;;
74328;SDS011;62745;51.060;13.786;2023-07-13T04:06:02;5.67;;;3.00;;
74328;SDS011;62745;51.060;13.786;2023-07-13T04:08:30;5.18;;;3.05;;
74328;SDS011;62745;51.060;13.786;2023-07-13T04:10:57;5.93;;;2.88;;
74328;SDS011;62745;51.060;13.786;2023-07-13T04:13:24;5.15;;;3.00;;
74328;SDS011;62745;51.060;13.786;2023-07-13T04:15:50;6.78;;;3.10;;
74328;SDS011;62745;51.060;13.786;2023-07-13T04:18:16;6.55;;;2.88;;
74328;SDS011;62745;51.060;13.786;2023-07-13T04:20:41;5.43;;;2.58;;
74328;SDS011;62745;51.060;13.786;2023-07-13T04:23:07;5.72;;;2.70;;
74328;SDS011;62745;51.060;13.786;2023-07-13T04:25:32;6.95;;;3.05;;
74328;SDS011;62745;51.060;13.786;2023-07-13T04:27:57;4.70;;;3.17;;
74328;SDS011;62745;51.060;13.786;2023-07-13T04:30:23;5.53;;;2.97;;
74328;SDS011;62745;51.060;13.786;2023-07-13T04:32:49;5.03;;;2.80;;
74328;SDS011;62745;51.060;13.786;2023-07-13T04:35:17;5.70;;;3.08;;
74328;SDS011;62745;51.060;13.786;2023-07-13T04:37:43;7.60;;;3.00;;
74328;SDS011;62745;51.060;13.786;2023-07-13T04:40:08;6.67;;;3.17;;
74328;SDS011;62745;51.060;13.786;2023-07-13T04:42:37;5.05;;;3.17;;
74328;SDS011;62745;51.060;13.786;2023-07-13T04:45:04;5.25;;;2.80;;
74328;SDS011;62745;51.060;13.786;2023-07-13T04:47:31;6.43;;;2.90;;
74328;SDS011;62745;51.060;13.786;2023-07-13T04:49:56;4.43;;;2.40;;
74328;SDS011;62745;51.060;13.786;2023-07-13T04:52:22;5.10;;;3.08;;
74328;SDS011;62745;51.060;13.786;2023-07-13T04:54:48;5.93;;;2.83;;
74328;SDS011;62745;51.060;13.786;2023-07-13T04:57:13;5.33;;;2.83;;
74328;SDS011;62745;51.060;13.786;2023-07-13T04:59:38;6.47;;;2.97;;
74328;SDS011;62745;51.060;13.786;2023-07-13T05:02:03;11.93;;;3.40;;
74328;SDS011;62745;51.060;13.786;2023-07-13T05:04:29;6.90;;;3.53;;
74328;SDS011;62745;51.060;13.786;2023-07-13T05:06:54;5.10;;;3.30;;
74328;SDS011;62745;51.060;13.786;2023-07-13T05:09:20;6.40;;;3.23;;
74328;SDS011;62745;51.060;13.786;2023-07-13T05:11:45;6.73;;;3.00;;
74328;SDS011;62745;51.060;13.786;2023-07-13T05:14:10;6.63;;;2.95;;
74328;SDS011;62745;51.060;13.786;2023-07-13T05:16:36;5.55;;;2.83;;
74328;SDS011;62745;51.060;13.786;2023-07-13T05:19:01;5.57;;;2.80;;
74328;SDS011;62745;51.060;13.786;2023-07-13T05:21:27;6.88;;;2.80;;
74328;SDS011;62745;51.060;13.786;2023-07-13T05:23:52;6.13;;;2.92;;
74328;SDS011;62745;51.060;13.786;2023-07-13T05:26:17;5.77;;;3.00;;
74328;SDS011;62745;51.060;13.786;2023-07-13T05:28:43;7.50;;;3.00;;
74328;SDS011;62745;51.060;13.786;2023-07-13T05:31:08;5.97;;;3.00;;
74328;SDS011;62745;51.060;13.786;2023-07-13T05:33:35;5.78;;;3.00;;
74328;SDS011;62745;51.060;13.786;2023-07-13T05:36:00;5.78;;;3.00;;
74328;SDS011;62745;51.060;13.786;2023-07-13T05:38:26;5.55;;;3.35;;
74328;SDS011;62745;51.060;13.786;2023-07-13T05:40:53;7.43;;;3.20;;
74328;SDS011;62745;51.060;13.786;2023-07-13T05:43:20;7.50;;;3.55;;
74328;SDS011;62745;51.060;13.786;2023-07-13T05:45:46;5.80;;;3.10;;
74328;SDS011;62745;51.060;13.786;2023-07-13T05:48:11;6.65;;;2.90;;
74328;SDS011;62745;51.060;13.786;2023-07-13T05:50:36;7.20;;;3.37;;
74328;SDS011;62745;51.060;13.786;2023-07-13T05:53:02;6.13;;;3.33;;
74328;SDS011;62745;51.060;13.786;2023-07-13T05:55:27;5.70;;;3.08;;
74328;SDS011;62745;51.060;13.786;2023-07-13T05:57:52;7.10;;;3.20;;
74328;SDS011;62745;51.060;13.786;2023-07-13T06:00:18;6.77;;;3.60;;
74328;SDS011;62745;51.060;13.786;2023-07-13T06:02:43;7.80;;;3.22;;
74328;SDS011;62745;51.060;13.786;2023-07-13T06:05:09;6.93;;;3.67;;
74328;SDS011;62745;51.060;13.786;2023-07-13T06:07:35;5.38;;;3.28;;
74328;SDS011;62745;51.060;13.786;2023-07-13T06:10:00;5.40;;;3.47;;
74328;SDS011;62745;51.060;13.786;2023-07-13T06:12:26;6.10;;;3.38;;
74328;SDS011;62745;51.060;13.786;2023-07-13T06:14:51;6.25;;;3.30;;
74328;SDS011;62745;51.060;13.786;2023-07-13T06:17:17;7.73;;;2.97;;
74328;SDS011;62745;51.060;13.786;2023-07-13T06:19:42;5.20;;;3.25;;
74328;SDS011;62745;51.060;13.786;2023-07-13T06:22:08;6.55;;;3.03;;
74328;SDS011;62745;51.060;13.786;2023-07-13T06:24:33;6.47;;;3.20;;
74328;SDS011;62745;51.060;13.786;2023-07-13T06:26:58;4.70;;;2.80;;
74328;SDS011;62745;51.060;13.786;2023-07-13T06:29:24;6.97;;;2.87;;
74328;SDS011;62745;51.060;13.786;2023-07-13T06:31:49;6.35;;;2.75;;
74328;SDS011;62745;51.060;13.786;2023-07-13T06:34:14;4.27;;;2.50;;
74328;SDS011;62745;51.060;13.786;2023-07-13T06:36:39;9.00;;;2.97;;
74328;SDS011;62745;51.060;13.786;2023-07-13T06:39:06;6.97;;;2.20;;
74328;SDS011;62745;51.060;13.786;2023-07-13T06:41:31;3.92;;;2.30;;
74328;SDS011;62745;51.060;13.786;2023-07-13T06:43:58;5.22;;;2.47;;
74328;SDS011;62745;51.060;13.786;2023-07-13T06:46:23;5.93;;;2.13;;
74328;SDS011;62745;51.060;13.786;2023-07-13T06:48:48;5.63;;;2.38;;
74328;SDS011;62745;51.060;13.786;2023-07-13T06:51:14;6.85;;;2.50;;
74328;SDS011;62745;51.060;13.786;2023-07-13T06:53:39;5.30;;;2.40;;
74328;SDS011;62745;51.060;13.786;2023-07-13T06:56:05;4.20;;;2.10;;
74328;SDS011;62745;51.060;13.786;2023-07-13T06:58:30;4.72;;;2.10;;
74328;SDS011;62745;51.060;13.786;2023-07-13T07:00:56;6.63;;;2.20;;
74328;SDS011;62745;51.060;13.786;2023-07-13T07:03:21;6.25;;;2.55;;
74328;SDS011;62745;51.060;13.786;2023-07-13T07:05:46;7.05;;;2.33;;
74328;SDS011;62745;51.060;13.786;2023-07-13T07:08:12;5.03;;;2.58;;
74328;SDS011;62745;51.060;13.786;2023-07-13T07:10:37;6.77;;;2.47;;
74328;SDS011;62745;51.060;13.786;2023-07-13T07:13:04;6.00;;;2.42;;
74328;SDS011;62745;51.060;13.786;2023-07-13T07:15:29;6.73;;;2.67;;
74328;SDS011;62745;51.060;13.786;2023-07-13T07:17:54;6.05;;;2.40;;
74328;SDS011;62745;51.060;13.786;2023-07-13T07:20:20;7.17;;;2.60;;
74328;SDS011;62745;51.060;13.786;2023-07-13T07:22:45;4.00;;;2.10;;
74328;SDS011;62745;51.060;13.786;2023-07-13T07:25:11;5.60;;;2.35;;
74328;SDS011;62745;51.060;13.786;2023-07-13T07:27:37;4.35;;;2.40;;
74328;SDS011;62745;51.060;13.786;2023-07-13T07:30:03;5.43;;;2.47;;
74328;SDS011;62745;51.060;13.786;2023-07-13T07:32:29;7.70;;;2.20;;
74328;SDS011;62745;51.060;13.786;2023-07-13T07:34:55;4.20;;;2.22;;
74328;SDS011;62745;51.060;13.786;2023-07-13T07:37:21;4.55;;;2.35;;
74328;SDS011;62745;51.060;13.786;2023-07-13T07:39:46;6.37;;;2.47;;
74328;SDS011;62745;51.060;13.786;2023-07-13T07:42:11;6.32;;;2.30;;
74328;SDS011;62745;51.060;13.786;2023-07-13T07:44:37;5.97;;;2.10;;
74328;SDS011;62745;51.060;13.786;2023-07-13T07:47:03;5.43;;;2.42;;
74328;SDS011;62745;51.060;13.786;2023-07-13T07:49:29;5.32;;;2.17;;
74328;SDS011;62745;51.060;13.786;2023-07-13T07:51:54;4.22;;;2.40;;
74328;SDS011;62745;51.060;13.786;2023-07-13T07:54:19;7.97;;;2.60;;
74328;SDS011;62745;51.060;13.786;2023-07-13T07:56:44;5.97;;;2.17;;
74328;SDS011;62745;51.060;13.786;2023-07-13T07:59:10;7.38;;;2.33;;
74328;SDS011;62745;51.060;13.786;2023-07-13T08:01:35;5.13;;;2.17;;
74328;SDS011;62745;51.060;13.786;2023-07-13T08:04:02;4.53;;;2.10;;
74328;SDS011;62745;51.060;13.786;2023-07-13T08:06:27;5.30;;;1.90;;
74328;SDS011;62745;51.060;13.786;2023-07-13T08:08:53;5.32;;;2.00;;
74328;SDS011;62745;51.060;13.786;2023-07-13T08:11:20;3.95;;;1.80;;
74328;SDS011;62745;51.060;13.786;2023-07-13T08:13:46;5.38;;;2.10;;
74328;SDS011;62745;51.060;13.786;2023-07-13T08:16:11;9.75;;;2.33;;
74328;SDS011;62745;51.060;13.786;2023-07-13T08:18:37;3.75;;;1.65;;
74328;SDS011;62745;51.060;13.786;2023-07-13T08:21:03;4.85;;;1.77;;
74328;SDS011;62745;51.060;13.786;2023-07-13T08:23:31;3.97;;;1.60;;
74328;SDS011;62745;51.060;13.786;2023-07-13T08:25:57;4.70;;;1.70;;
74328;SDS011;62745;51.060;13.786;2023-07-13T08:28:23;5.43;;;1.95;;
74328;SDS011;62745;51.060;13.786;2023-07-13T08:30:49;4.10;;;1.77;;
74328;SDS011;62745;51.060;13.786;2023-07-13T08:33:15;7.00;;;2.00;;
74328;SDS011;62745;51.060;13.786;2023-07-13T08:35:41;4.93;;;1.58;;
74328;SDS011;62745;51.060;13.786;2023-07-13T08:38:06;4.43;;;1.50;;
74328;SDS011;62745;51.060;13.786;2023-07-13T08:40:31;4.28;;;1.80;;
74328;SDS011;62745;51.060;13.786;2023-07-13T08:42:59;4.07;;;1.85;;
74328;SDS011;62745;51.060;13.786;2023-07-13T08:45:36;5.22;;;1.80;;
74328;SDS011;62745;51.060;13.786;2023-07-13T08:48:26;4.18;;;1.60;;
74328;SDS011;62745;51.060;13.786;2023-07-13T08:50:56;6.65;;;1.90;;
74328;SDS011;62745;51.060;13.786;2023-07-13T08:53:25;4.13;;;1.52;;
74328;SDS011;62745;51.060;13.786;2023-07-13T08:55:58;3.72;;;1.70;;
74328;SDS011;62745;51.060;13.786;2023-07-13T08:58:24;5.10;;;1.90;;
74328;SDS011;62745;51.060;13.786;2023-07-13T09:04:26;5.32;;;1.85;;
74328;SDS011;62745;51.060;13.786;2023-07-13T09:07:04;5.05;;;1.58;;
74328;SDS011;62745;51.060;13.786;2023-07-13T09:09:42;4.18;;;1.88;;
74328;SDS011;62745;51.060;13.786;2023-07-13T09:12:43;5.00;;;1.45;;
74328;SDS011;62745;51.060;13.786;2023-07-13T09:15:24;4.60;;;1.45;;
74328;SDS011;62745;51.060;13.786;2023-07-13T09:17:55;4.68;;;1.50;;
74328;SDS011;62745;51.060;13.786;2023-07-13T09:20:34;4.63;;;1.65;;
74328;SDS011;62745;51.060;13.786;2023-07-13T09:23:05;3.67;;;1.58;;
74328;SDS011;62745;51.060;13.786;2023-07-13T09:25:36;4.20;;;1.65;;
74328;SDS011;62745;51.060;13.786;2023-07-13T09:28:13;3.72;;;1.80;;
74328;SDS011;62745;51.060;13.786;2023-07-13T09:31:00;5.45;;;1.85;;
74328;SDS011;62745;51.060;13.786;2023-07-13T09:33:29;4.13;;;1.58;;
74328;SDS011;62745;51.060;13.786;2023-07-13T09:35:56;3.67;;;1.13;;
74328;SDS011;62745;51.060;13.786;2023-07-13T09:38:25;4.22;;;1.50;;
74328;SDS011;62745;51.060;13.786;2023-07-13T09:44:10;3.78;;;1.80;;
74328;SDS011;62745;51.060;13.786;2023-07-13T09:46:38;3.67;;;1.73;;
74328;SDS011;62745;51.060;13.786;2023-07-13T09:49:09;3.63;;;1.70;;
74328;SDS011;62745;51.060;13.786;2023-07-13T09:51:35;3.65;;;1.60;;
74328;SDS011;62745;51.060;13.786;2023-07-13T09:54:02;5.05;;;1.98;;
74328;SDS011;62745;51.060;13.786;2023-07-13T09:56:28;3.97;;;1.40;;
74328;SDS011;62745;51.060;13.786;2023-07-13T09:58:58;4.78;;;2.13;;
74328;SDS011;62745;51.060;13.786;2023-07-13T10:01:34;4.63;;;1.65;;
74328;SDS011;62745;51.060;13.786;2023-07-13T10:04:12;4.63;;;1.98;;
74328;SDS011;62745;51.060;13.786;2023-07-13T10:06:38;5.35;;;1.83;;
74328;SDS011;62745;51.060;13.786;2023-07-13T10:09:07;4.30;;;1.63;;
74328;SDS011;62745;51.060;13.786;2023-07-13T10:11:34;5.47;;;1.80;;
74328;SDS011;62745;51.060;13.786;2023-07-13T10:14:02;5.18;;;2.03;;
74328;SDS011;62745;51.060;13.786;2023-07-13T10:16:35;5.13;;;1.52;;
74328;SDS011;62745;51.060;13.786;2023-07-13T10:19:05;7.75;;;1.67;;
74328;SDS011;62745;51.060;13.786;2023-07-13T10:21:58;5.78;;;1.60;;
74328;SDS011;62745;51.060;13.786;2023-07-13T10:24:27;3.50;;;1.40;;
74328;SDS011;62745;51.060;13.786;2023-07-13T10:29:59;4.43;;;1.60;;
74328;SDS011;62745;51.060;13.786;2023-07-13T10:32:45;4.63;;;1.60;;
74328;SDS011;62745;51.060;13.786;2023-07-13T10:35:12;4.07;;;1.40;;
74328;SDS011;62745;51.060;13.786;2023-07-13T10:37:51;5.25;;;1.70;;
74328;SDS011;62745;51.060;13.786;2023-07-13T10:40:23;3.55;;;1.60;;
74328;SDS011;62745;51.060;13.786;2023-07-13T10:42:54;4.85;;;1.90;;
74328;SDS011;62745;51.060;13.786;2023-07-13T10:45:23;4.00;;;1.50;;
74328;SDS011;62745;51.060;13.786;2023-07-13T10:47:50;7.07;;;1.70;;
74328;SDS011;62745;51.060;13.786;2023-07-13T10:50:21;3.25;;;1.30;;
74328;SDS011;62745;51.060;13.786;2023-07-13T10:52:50;7.18;;;1.73;;
74328;SDS011;62745;51.060;13.786;2023-07-13T10:55:32;4.93;;;1.80;;
74328;SDS011;62745;51.060;13.786;2023-07-13T10:58:21;4.00;;;1.42;;
74328;SDS011;62745;51.060;13.786;2023-07-13T11:01:00;4.20;;;1.80;;
74328;SDS011;62745;51.060;13.786;2023-07-13T11:03:55;5.18;;;1.70;;
74328;SDS011;62745;51.060;13.786;2023-07-13T11:08:57;5.13;;;1.55;;
74328;SDS011;62745;51.060;13.786;2023-07-13T11:18:44;4.87;;;1.30;;
74328;SDS011;62745;51.060;13.786;2023-07-13T11:21:17;3.40;;;1.38;;
74328;SDS011;62745;51.060;13.786;2023-07-13T11:23:45;4.07;;;1.15;;
74328;SDS011;62745;51.060;13.786;2023-07-13T11:29:07;4.20;;;1.40;;
74328;SDS011;62745;51.060;13.786;2023-07-13T11:31:34;6.63;;;1.50;;
74328;SDS011;62745;51.060;13.786;2023-07-13T11:34:00;4.70;;;1.67;;
74328;SDS011;62745;51.060;13.786;2023-07-13T11:36:29;4.18;;;1.58;;
74328;SDS011;62745;51.060;13.786;2023-07-13T11:38:58;4.65;;;1.70;;
74328;SDS011;62745;51.060;13.786;2023-07-13T11:41:26;3.53;;;1.30;;
74328;SDS011;62745;51.060;13.786;2023-07-13T11:44:07;3.58;;;1.45;;
74328;SDS011;62745;51.060;13.786;2023-07-13T11:46:36;4.57;;;1.40;;
74328;SDS011;62745;51.060;13.786;2023-07-13T11:49:04;8.00;;;1.90;;
74328;SDS011;62745;51.060;13.786;2023-07-13T11:51:32;4.80;;;1.60;;
74328;SDS011;62745;51.060;13.786;2023-07-13T11:54:06;5.15;;;1.58;;
74328;SDS011;62745;51.060;13.786;2023-07-13T11:56:47;3.90;;;1.60;;
74328;SDS011;62745;51.060;13.786;2023-07-13T11:59:14;4.07;;;1.60;;
74328;SDS011;62745;51.060;13.786;2023-07-13T12:01:44;4.43;;;1.60;;
74328;SDS011;62745;51.060;13.786;2023-07-13T12:04:21;4.45;;;1.33;;
74328;SDS011;62745;51.060;13.786;2023-07-13T12:06:54;4.72;;;1.73;;
74328;SDS011;62745;51.060;13.786;2023-07-13T12:09:21;5.07;;;1.55;;
74328;SDS011;62745;51.060;13.786;2023-07-13T12:11:50;5.80;;;1.40;;
74328;SDS011;62745;51.060;13.786;2023-07-13T12:14:16;5.05;;;1.52;;
74328;SDS011;62745;51.060;13.786;2023-07-13T12:16:43;3.95;;;1.55;;
74328;SDS011;62745;51.060;13.786;2023-07-13T12:19:20;6.20;;;1.48;;
74328;SDS011;62745;51.060;13.786;2023-07-13T12:21:47;4.43;;;1.45;;
74328;SDS011;62745;51.060;13.786;2023-07-13T12:24:17;4.43;;;1.70;;
74328;SDS011;62745;51.060;13.786;2023-07-13T12:26:44;4.97;;;1.60;;
74328;SDS011;62745;51.060;13.786;2023-07-13T12:29:15;6.60;;;1.50;;
74328;SDS011;62745;51.060;13.786;2023-07-13T12:31:43;4.50;;;1.30;;
74328;SDS011;62745;51.060;13.786;2023-07-13T12:34:11;3.17;;;1.10;;
74328;SDS011;62745;51.060;13.786;2023-07-13T12:36:46;3.58;;;1.45;;
74328;SDS011;62745;51.060;13.786;2023-07-13T12:42:08;3.38;;;1.40;;
74328;SDS011;62745;51.060;13.786;2023-07-13T12:44:57;7.78;;;1.50;;
74328;SDS011;62745;51.060;13.786;2023-07-13T12:47:25;4.13;;;1.48;;
74328;SDS011;62745;51.060;13.786;2023-07-13T12:49:55;2.95;;;1.27;;
74328;SDS011;62745;51.060;13.786;2023-07-13T12:52:24;4.97;;;1.50;;
74328;SDS011;62745;51.060;13.786;2023-07-13T12:55:11;6.22;;;1.63;;
74328;SDS011;62745;51.060;13.786;2023-07-13T12:57:49;4.57;;;1.50;;
74328;SDS011;62745;51.060;13.786;2023-07-13T13:02:49;4.40;;;1.42;;
74328;SDS011;62745;51.060;13.786;2023-07-13T13:05:15;3.80;;;1.38;;
74328;SDS011;62745;51.060;13.786;2023-07-13T13:07:41;4.25;;;1.33;;
74328;SDS011;62745;51.060;13.786;2023-07-13T13:10:13;3.05;;;1.20;;
74328;SDS011;62745;51.060;13.786;2023-07-13T13:12:39;6.38;;;2.03;;
74328;SDS011;62745;51.060;13.786;2023-07-13T13:15:07;3.45;;;1.50;;
74328;SDS011;62745;51.060;13.786;2023-07-13T13:17:33;4.40;;;1.42;;
74328;SDS011;62745;51.060;13.786;2023-07-13T13:19:59;5.18;;;1.50;;
74328;SDS011;62745;51.060;13.786;2023-07-13T13:22:24;7.93;;;1.53;;
74328;SDS011;62745;51.060;13.786;2023-07-13T13:24:49;3.63;;;1.50;;
74328;SDS011;62745;51.060;13.786;2023-07-13T13:27:15;4.07;;;1.42;;
74328;SDS011;62745;51.060;13.786;2023-07-13T13:29:42;4.25;;;1.50;;
74328;SDS011;62745;51.060;13.786;2023-07-13T13:32:10;5.53;;;1.50;;
74328;SDS011;62745;51.060;13.786;2023-07-13T13:34:37;3.20;;;1.48;;
74328;SDS011;62745;51.060;13.786;2023-07-13T13:37:02;4.00;;;1.50;;
74328;SDS011;62745;51.060;13.786;2023-07-13T13:39:30;3.90;;;1.38;;
74328;SDS011;62745;51.060;13.786;2023-07-13T13:42:01;3.47;;;1.40;;
74328;SDS011;62745;51.060;13.786;2023-07-13T13:44:27;4.68;;;1.60;;
74328;SDS011;62745;51.060;13.786;2023-07-13T13:46:53;3.42;;;1.40;;
74328;SDS011;62745;51.060;13.786;2023-07-13T13:49:21;4.57;;;1.50;;
74328;SDS011;62745;51.060;13.786;2023-07-13T13:51:48;4.07;;;1.30;;
74328;SDS011;62745;51.060;13.786;2023-07-13T13:54:15;5.85;;;1.60;;
74328;SDS011;62745;51.060;13.786;2023-07-13T13:56:42;4.82;;;1.42;;
74328;SDS011;62745;51.060;13.786;2023-07-13T13:59:08;4.65;;;1.25;;
74328;SDS011;62745;51.060;13.786;2023-07-13T14:01:34;4.38;;;1.30;;
74328;SDS011;62745;51.060;13.786;2023-07-13T14:04:00;3.58;;;1.30;;
74328;SDS011;62745;51.060;13.786;2023-07-13T14:06:25;3.25;;;1.30;;
74328;SDS011;62745;51.060;13.786;2023-07-13T14:08:51;4.88;;;1.40;;
74328;SDS011;62745;51.060;13.786;2023-07-13T14:11:17;3.70;;;1.23;;
74328;SDS011;62745;51.060;13.786;2023-07-13T14:13:49;3.97;;;1.13;;
74328;SDS011;62745;51.060;13.786;2023-07-13T14:16:20;5.03;;;1.40;;
74328;SDS011;62745;51.060;13.786;2023-07-13T14:18:47;6.68;;;1.88;;
74328;SDS011;62745;51.060;13.786;2023-07-13T14:21:18;5.30;;;1.50;;
74328;SDS011;62745;51.060;13.786;2023-07-13T14:23:46;4.78;;;1.40;;
74328;SDS011;62745;51.060;13.786;2023-07-13T14:26:20;7.15;;;1.63;;
74328;SDS011;62745;51.060;13.786;2023-07-13T14:28:48;4.10;;;1.30;;
74328;SDS011;62745;51.060;13.786;2023-07-13T14:31:16;7.25;;;1.50;;
74328;SDS011;62745;51.060;13.786;2023-07-13T14:33:43;4.53;;;1.48;;
74328;SDS011;62745;51.060;13.786;2023-07-13T14:36:23;4.28;;;1.50;;
74328;SDS011;62745;51.060;13.786;2023-07-13T14:38:50;4.72;;;1.30;;
74328;SDS011;62745;51.060;13.786;2023-07-13T14:41:15;5.93;;;1.50;;
74328;SDS011;62745;51.060;13.786;2023-07-13T14:43:40;5.77;;;1.60;;
74328;SDS011;62745;51.060;13.786;2023-07-13T14:46:07;5.23;;;1.50;;
74328;SDS011;62745;51.060;13.786;2023-07-13T14:48:47;2.67;;;1.20;;
74328;SDS011;62745;51.060;13.786;2023-07-13T14:51:13;4.97;;;1.55;;
74328;SDS011;62745;51.060;13.786;2023-07-13T14:53:38;4.90;;;1.50;;
74328;SDS011;62745;51.060;13.786;2023-07-13T14:56:13;4.00;;;1.30;;
74328;SDS011;62745;51.060;13.786;2023-07-13T14:58:39;3.60;;;1.38;;
74328;SDS011;62745;51.060;13.786;2023-07-13T15:01:08;3.60;;;1.40;;
74328;SDS011;62745;51.060;13.786;2023-07-13T15:03:37;3.63;;;1.27;;
74328;SDS011;62745;51.060;13.786;2023-07-13T15:06:10;5.22;;;1.77;;
74328;SDS011;62745;51.060;13.786;2023-07-13T15:08:37;3.28;;;1.30;;